sensor_id;sensor_type;location;lat;lon;timestamp;temperature;humidity
11399;DHT22;5755;48.116;11.608;2023-04-24T00:01:34;10.80;99.90
11399;DHT22;5755;48.116;11.608;2023-04-24T00:09:13;10.80;99.90
11399;DHT22;5755;48.116;11.608;2023-04-24T00:11:41;10.70;99.90
11399;DHT22;5755;48.116;11.608;2023-04-24T00:14:08;10.70;99.90
11399;DHT22;5755;48.116;11.608;2023-04-24T00:19:11;10.60;99.90
11399;DHT22;5755;48.116;11.608;2023-04-24T00:24:14;10.70;99.90
11399;DHT22;5755;48.116;11.608;2023-04-24T00:29:12;10.70;99.90
11399;DHT22;5755;48.116;11.608;2023-04-24T00:31:39;10.70;99.90
11399;DHT22;5755;48.116;11.608;2023-04-24T00:34:06;10.70;99.90
11399;DHT22;5755;48.116;11.608;2023-04-24T00:36:34;10.60;99.90
11399;DHT22;5755;48.116;11.608;2023-04-24T00:39:01;10.60;99.90
11399;DHT22;5755;48.116;11.608;2023-04-24T00:41:29;10.60;99.90
11399;DHT22;5755;48.116;11.608;2023-04-24T00:43:56;10.60;99.90
11399;DHT22;5755;48.116;11.608;2023-04-24T00:46:23;10.60;99.90
11399;DHT22;5755;48.116;11.608;2023-04-24T00:48:50;10.60;99.90
11399;DHT22;5755;48.116;11.608;2023-04-24T00:51:17;10.70;99.90
11399;DHT22;5755;48.116;11.608;2023-04-24T00:53:45;10.60;99.90
11399;DHT22;5755;48.116;11.608;2023-04-24T00:56:12;10.60;99.90
11399;DHT22;5755;48.116;11.608;2023-04-24T00:58:39;10.60;99.90
11399;DHT22;5755;48.116;11.608;2023-04-24T01:01:07;10.50;99.90
11399;DHT22;5755;48.116;11.608;2023-04-24T01:03:34;10.50;99.90
11399;DHT22;5755;48.116;11.608;2023-04-24T01:06:03;10.40;99.90
11399;DHT22;5755;48.116;11.608;2023-04-24T01:11:07;10.40;99.90
11399;DHT22;5755;48.116;11.608;2023-04-24T01:13:34;10.40;99.90
11399;DHT22;5755;48.116;11.608;2023-04-24T01:16:01;10.40;99.90
11399;DHT22;5755;48.116;11.608;2023-04-24T01:18:28;10.30;99.90
11399;DHT22;5755;48.116;11.608;2023-04-24T01:23:32;10.30;99.90
11399;DHT22;5755;48.116;11.608;2023-04-24T01:25:59;10.30;99.90
11399;DHT22;5755;48.116;11.608;2023-04-24T01:28:26;10.30;99.90
11399;DHT22;5755;48.116;11.608;2023-04-24T01:30:53;10.20;99.90
11399;DHT22;5755;48.116;11.608;2023-04-24T01:33:21;10.30;99.90
11399;DHT22;5755;48.116;11.608;2023-04-24T01:38:23;10.30;99.90
11399;DHT22;5755;48.116;11.608;2023-04-24T01:40:51;10.20;99.90
11399;DHT22;5755;48.116;11.608;2023-04-24T01:43:19;10.20;99.90
11399;DHT22;5755;48.116;11.608;2023-04-24T01:45:46;10.20;99.90
11399;DHT22;5755;48.116;11.608;2023-04-24T01:48:13;10.10;99.90
11399;DHT22;5755;48.116;11.608;2023-04-24T01:50:40;10.10;99.90
11399;DHT22;5755;48.116;11.608;2023-04-24T01:53:07;10.10;99.90
11399;DHT22;5755;48.116;11.608;2023-04-24T01:58:11;10.10;99.90
11399;DHT22;5755;48.116;11.608;2023-04-24T02:00:38;10.10;99.90
11399;DHT22;5755;48.116;11.608;2023-04-24T02:03:05;10.10;99.90
11399;DHT22;5755;48.116;11.608;2023-04-24T02:05:31;10.00;99.90
11399;DHT22;5755;48.116;11.608;2023-04-24T02:07:58;10.00;99.90
11399;DHT22;5755;48.116;11.608;2023-04-24T02:10:25;10.10;99.90
11399;DHT22;5755;48.116;11.608;2023-04-24T02:12:52;10.00;99.90
11399;DHT22;5755;48.116;11.608;2023-04-24T02:15:21;10.00;99.90
11399;DHT22;5755;48.116;11.608;2023-04-24T02:17:47;9.90;99.90
11399;DHT22;5755;48.116;11.608;2023-04-24T02:20:14;9.90;99.90
11399;DHT22;5755;48.116;11.608;2023-04-24T02:22:43;9.90;99.90
11399;DHT22;5755;48.116;11.608;2023-04-24T02:25:10;9.90;99.90
11399;DHT22;5755;48.116;11.608;2023-04-24T02:27:37;10.00;99.90
11399;DHT22;5755;48.116;11.608;2023-04-24T02:30:05;10.00;99.90
11399;DHT22;5755;48.116;11.608;2023-04-24T02:32:34;10.10;99.90
11399;DHT22;5755;48.116;11.608;2023-04-24T02:35:01;10.10;99.90
11399;DHT22;5755;48.116;11.608;2023-04-24T02:37:28;10.10;99.90
11399;DHT22;5755;48.116;11.608;2023-04-24T02:39:55;10.00;99.90
11399;DHT22;5755;48.116;11.608;2023-04-24T02:42:22;10.00;99.90
11399;DHT22;5755;48.116;11.608;2023-04-24T02:44:51;10.00;99.90
11399;DHT22;5755;48.116;11.608;2023-04-24T02:47:18;10.00;99.90
11399;DHT22;5755;48.116;11.608;2023-04-24T02:49:48;9.90;99.90
11399;DHT22;5755;48.116;11.608;2023-04-24T02:52:15;10.00;99.90
11399;DHT22;5755;48.116;11.608;2023-04-24T02:54:45;10.00;99.90
11399;DHT22;5755;48.116;11.608;2023-04-24T02:57:12;10.00;99.90
11399;DHT22;5755;48.116;11.608;2023-04-24T02:59:39;10.10;99.90
11399;DHT22;5755;48.116;11.608;2023-04-24T03:02:05;10.00;99.90
11399;DHT22;5755;48.116;11.608;2023-04-24T03:04:32;9.90;99.90
11399;DHT22;5755;48.116;11.608;2023-04-24T03:07:01;9.90;99.90
11399;DHT22;5755;48.116;11.608;2023-04-24T03:09:27;9.90;99.90
11399;DHT22;5755;48.116;11.608;2023-04-24T03:11:54;9.90;99.90
11399;DHT22;5755;48.116;11.608;2023-04-24T03:14:22;9.90;99.90
11399;DHT22;5755;48.116;11.608;2023-04-24T03:16:48;9.90;99.90
11399;DHT22;5755;48.116;11.608;2023-04-24T03:21:51;9.90;99.90
11399;DHT22;5755;48.116;11.608;2023-04-24T03:24:19;9.80;99.90
11399;DHT22;5755;48.116;11.608;2023-04-24T03:26:46;9.80;99.90
11399;DHT22;5755;48.116;11.608;2023-04-24T03:29:13;9.80;99.90
11399;DHT22;5755;48.116;11.608;2023-04-24T03:31:40;9.80;99.90
11399;DHT22;5755;48.116;11.608;2023-04-24T04:20:40;9.70;99.90
11399;DHT22;5755;48.116;11.608;2023-04-24T04:23:07;9.80;99.90
11399;DHT22;5755;48.116;11.608;2023-04-24T04:25:34;9.70;99.90
11399;DHT22;5755;48.116;11.608;2023-04-24T04:30:36;9.80;99.90
11399;DHT22;5755;48.116;11.608;2023-04-24T04:33:03;9.70;99.90
11399;DHT22;5755;48.116;11.608;2023-04-24T04:35:30;9.70;99.90
11399;DHT22;5755;48.116;11.608;2023-04-24T04:37:58;9.80;99.90
11399;DHT22;5755;48.116;11.608;2023-04-24T04:40:26;9.70;99.90
11399;DHT22;5755;48.116;11.608;2023-04-24T04:42:53;9.70;99.90
11399;DHT22;5755;48.116;11.608;2023-04-24T04:45:21;9.60;99.90
11399;DHT22;5755;48.116;11.608;2023-04-24T04:47:49;9.70;99.90
11399;DHT22;5755;48.116;11.608;2023-04-24T04:50:16;9.70;99.90
11399;DHT22;5755;48.116;11.608;2023-04-24T04:52:44;9.70;99.90
11399;DHT22;5755;48.116;11.608;2023-04-24T04:55:13;9.60;99.90
11399;DHT22;5755;48.116;11.608;2023-04-24T04:57:40;9.70;99.90
11399;DHT22;5755;48.116;11.608;2023-04-24T05:00:08;9.70;99.90
11399;DHT22;5755;48.116;11.608;2023-04-24T05:02:37;9.60;99.90
11399;DHT22;5755;48.116;11.608;2023-04-24T05:05:04;9.60;99.90
11399;DHT22;5755;48.116;11.608;2023-04-24T05:07:32;9.70;99.90
11399;DHT22;5755;48.116;11.608;2023-04-24T05:09:59;9.70;99.90
11399;DHT22;5755;48.116;11.608;2023-04-24T05:12:27;9.70;99.90
11399;DHT22;5755;48.116;11.608;2023-04-24T05:14:54;9.70;99.90
11399;DHT22;5755;48.116;11.608;2023-04-24T05:17:21;9.70;99.90
11399;DHT22;5755;48.116;11.608;2023-04-24T05:19:48;9.80;99.90
11399;DHT22;5755;48.116;11.608;2023-04-24T05:22:15;9.80;99.90
11399;DHT22;5755;48.116;11.608;2023-04-24T05:24:43;9.80;99.90
11399;DHT22;5755;48.116;11.608;2023-04-24T05:27:10;9.80;99.90
11399;DHT22;5755;48.116;11.608;2023-04-24T05:29:39;9.90;99.90
11399;DHT22;5755;48.116;11.608;2023-04-24T05:32:06;9.90;99.90
11399;DHT22;5755;48.116;11.608;2023-04-24T05:34:33;9.90;99.90
11399;DHT22;5755;48.116;11.608;2023-04-24T05:37:00;9.90;99.90
11399;DHT22;5755;48.116;11.608;2023-04-24T05:39:28;10.00;99.90
11399;DHT22;5755;48.116;11.608;2023-04-24T05:41:55;10.10;99.90
11399;DHT22;5755;48.116;11.608;2023-04-24T05:44:23;10.20;99.90
11399;DHT22;5755;48.116;11.608;2023-04-24T05:46:52;10.30;99.90
11399;DHT22;5755;48.116;11.608;2023-04-24T05:49:21;10.30;99.90
11399;DHT22;5755;48.116;11.608;2023-04-24T05:51:48;10.30;99.90
11399;DHT22;5755;48.116;11.608;2023-04-24T05:54:15;10.30;99.80
11399;DHT22;5755;48.116;11.608;2023-04-24T05:56:43;10.30;99.90
11399;DHT22;5755;48.116;11.608;2023-04-24T05:59:10;10.20;99.90
11399;DHT22;5755;48.116;11.608;2023-04-24T06:01:37;10.20;99.90
11399;DHT22;5755;48.116;11.608;2023-04-24T06:04:05;10.20;99.90
11399;DHT22;5755;48.116;11.608;2023-04-24T06:06:35;10.20;99.90
11399;DHT22;5755;48.116;11.608;2023-04-24T06:09:02;10.30;99.90
11399;DHT22;5755;48.116;11.608;2023-04-24T06:11:29;10.30;99.90
11399;DHT22;5755;48.116;11.608;2023-04-24T06:13:56;10.50;99.40
11399;DHT22;5755;48.116;11.608;2023-04-24T06:16:23;10.60;99.00
11399;DHT22;5755;48.116;11.608;2023-04-24T06:18:50;10.60;99.10
11399;DHT22;5755;48.116;11.608;2023-04-24T06:21:19;10.80;99.00
11399;DHT22;5755;48.116;11.608;2023-04-24T06:23:47;10.90;98.90
11399;DHT22;5755;48.116;11.608;2023-04-24T06:26:15;10.90;98.10
11399;DHT22;5755;48.116;11.608;2023-04-24T06:28:44;11.00;98.00
11399;DHT22;5755;48.116;11.608;2023-04-24T06:31:11;11.00;97.30
11399;DHT22;5755;48.116;11.608;2023-04-24T06:33:38;11.00;98.00
11399;DHT22;5755;48.116;11.608;2023-04-24T06:36:06;11.00;97.60
11399;DHT22;5755;48.116;11.608;2023-04-24T06:38:34;11.00;97.80
11399;DHT22;5755;48.116;11.608;2023-04-24T06:41:01;11.00;97.40
11399;DHT22;5755;48.116;11.608;2023-04-24T06:43:30;11.10;97.00
11399;DHT22;5755;48.116;11.608;2023-04-24T06:45:57;11.20;98.00
11399;DHT22;5755;48.116;11.608;2023-04-24T06:48:24;11.30;96.70
11399;DHT22;5755;48.116;11.608;2023-04-24T06:50:52;11.40;96.40
11399;DHT22;5755;48.116;11.608;2023-04-24T06:53:19;11.60;96.10
11399;DHT22;5755;48.116;11.608;2023-04-24T06:55:48;11.70;95.60
11399;DHT22;5755;48.116;11.608;2023-04-24T06:58:17;11.80;95.50
11399;DHT22;5755;48.116;11.608;2023-04-24T07:00:45;11.80;95.30
11399;DHT22;5755;48.116;11.608;2023-04-24T07:03:12;11.90;94.70
11399;DHT22;5755;48.116;11.608;2023-04-24T07:05:39;11.90;93.30
11399;DHT22;5755;48.116;11.608;2023-04-24T07:08:08;11.90;94.60
11399;DHT22;5755;48.116;11.608;2023-04-24T07:10:37;12.10;94.80
11399;DHT22;5755;48.116;11.608;2023-04-24T07:13:06;12.30;92.70
11399;DHT22;5755;48.116;11.608;2023-04-24T07:15:34;12.30;94.40
11399;DHT22;5755;48.116;11.608;2023-04-24T07:18:01;12.30;92.40
11399;DHT22;5755;48.116;11.608;2023-04-24T07:20:28;12.30;92.60
11399;DHT22;5755;48.116;11.608;2023-04-24T07:22:55;12.30;92.80
11399;DHT22;5755;48.116;11.608;2023-04-24T07:25:22;12.40;93.50
11399;DHT22;5755;48.116;11.608;2023-04-24T07:27:49;12.40;92.90
11399;DHT22;5755;48.116;11.608;2023-04-24T07:30:17;12.50;91.40
11399;DHT22;5755;48.116;11.608;2023-04-24T07:32:44;12.60;91.00
11399;DHT22;5755;48.116;11.608;2023-04-24T07:35:11;12.70;90.90
11399;DHT22;5755;48.116;11.608;2023-04-24T07:37:38;12.80;90.30
11399;DHT22;5755;48.116;11.608;2023-04-24T07:40:07;12.80;89.00
11399;DHT22;5755;48.116;11.608;2023-04-24T07:42:34;12.80;90.00
11399;DHT22;5755;48.116;11.608;2023-04-24T07:45:02;12.70;90.50
11399;DHT22;5755;48.116;11.608;2023-04-24T07:47:31;12.60;90.90
11399;DHT22;5755;48.116;11.608;2023-04-24T07:49:58;12.60;90.70
11399;DHT22;5755;48.116;11.608;2023-04-24T07:52:25;12.30;90.30
11399;DHT22;5755;48.116;11.608;2023-04-24T07:54:52;12.30;90.80
11399;DHT22;5755;48.116;11.608;2023-04-24T07:57:24;12.30;90.80
11399;DHT22;5755;48.116;11.608;2023-04-24T07:59:51;12.30;90.80
11399;DHT22;5755;48.116;11.608;2023-04-24T08:02:18;12.40;91.20
11399;DHT22;5755;48.116;11.608;2023-04-24T08:04:48;12.40;90.90
11399;DHT22;5755;48.116;11.608;2023-04-24T08:07:15;12.40;90.90
11399;DHT22;5755;48.116;11.608;2023-04-24T08:09:42;12.30;90.10
11399;DHT22;5755;48.116;11.608;2023-04-24T08:12:09;12.40;90.50
11399;DHT22;5755;48.116;11.608;2023-04-24T08:14:36;12.60;90.90
11399;DHT22;5755;48.116;11.608;2023-04-24T08:17:03;12.80;88.90
11399;DHT22;5755;48.116;11.608;2023-04-24T08:19:30;12.90;88.20
11399;DHT22;5755;48.116;11.608;2023-04-24T08:21:59;13.00;89.00
11399;DHT22;5755;48.116;11.608;2023-04-24T08:24:26;12.90;86.50
11399;DHT22;5755;48.116;11.608;2023-04-24T08:26:53;12.90;87.30
11399;DHT22;5755;48.116;11.608;2023-04-24T08:29:22;12.70;88.70
11399;DHT22;5755;48.116;11.608;2023-04-24T08:31:49;12.50;89.90
11399;DHT22;5755;48.116;11.608;2023-04-24T08:34:16;12.40;90.20
11399;DHT22;5755;48.116;11.608;2023-04-24T08:36:43;12.20;89.80
11399;DHT22;5755;48.116;11.608;2023-04-24T08:39:11;12.10;90.80
11399;DHT22;5755;48.116;11.608;2023-04-24T08:41:39;11.90;91.20
11399;DHT22;5755;48.116;11.608;2023-04-24T08:44:09;11.90;91.80
11399;DHT22;5755;48.116;11.608;2023-04-24T08:46:36;11.60;93.60
11399;DHT22;5755;48.116;11.608;2023-04-24T08:49:03;11.10;96.00
11399;DHT22;5755;48.116;11.608;2023-04-24T08:51:31;10.90;97.70
11399;DHT22;5755;48.116;11.608;2023-04-24T08:53:58;10.90;98.40
11399;DHT22;5755;48.116;11.608;2023-04-24T08:56:27;10.90;93.90
11399;DHT22;5755;48.116;11.608;2023-04-24T08:58:57;11.20;93.70
11399;DHT22;5755;48.116;11.608;2023-04-24T09:01:25;11.50;92.50
11399;DHT22;5755;48.116;11.608;2023-04-24T09:03:53;11.60;91.20
11399;DHT22;5755;48.116;11.608;2023-04-24T09:06:22;11.60;90.20
11399;DHT22;5755;48.116;11.608;2023-04-24T09:08:52;11.60;89.40
11399;DHT22;5755;48.116;11.608;2023-04-24T09:11:19;11.40;90.00
11399;DHT22;5755;48.116;11.608;2023-04-24T09:13:50;11.40;88.70
11399;DHT22;5755;48.116;11.608;2023-04-24T09:16:18;11.50;88.20
11399;DHT22;5755;48.116;11.608;2023-04-24T09:18:46;11.50;87.90
11399;DHT22;5755;48.116;11.608;2023-04-24T09:21:13;11.50;86.60
11399;DHT22;5755;48.116;11.608;2023-04-24T09:23:40;11.60;86.30
11399;DHT22;5755;48.116;11.608;2023-04-24T09:26:09;11.60;87.50
11399;DHT22;5755;48.116;11.608;2023-04-24T09:28:37;11.60;88.10
11399;DHT22;5755;48.116;11.608;2023-04-24T09:31:08;11.70;86.70
11399;DHT22;5755;48.116;11.608;2023-04-24T09:33:36;11.90;86.30
11399;DHT22;5755;48.116;11.608;2023-04-24T09:36:03;12.00;83.30
11399;DHT22;5755;48.116;11.608;2023-04-24T09:38:32;12.00;79.50
11399;DHT22;5755;48.116;11.608;2023-04-24T09:41:01;12.10;79.30
11399;DHT22;5755;48.116;11.608;2023-04-24T09:43:29;12.50;79.40
11399;DHT22;5755;48.116;11.608;2023-04-24T09:45:56;12.80;75.80
11399;DHT22;5755;48.116;11.608;2023-04-24T09:48:32;13.00;66.00
11399;DHT22;5755;48.116;11.608;2023-04-24T09:51:00;13.10;65.80
11399;DHT22;5755;48.116;11.608;2023-04-24T09:53:29;13.20;63.90
11399;DHT22;5755;48.116;11.608;2023-04-24T09:55:56;13.40;62.40
11399;DHT22;5755;48.116;11.608;2023-04-24T09:58:29;13.50;64.00
11399;DHT22;5755;48.116;11.608;2023-04-24T10:00:56;13.50;56.70
11399;DHT22;5755;48.116;11.608;2023-04-24T10:03:25;13.40;57.00
11399;DHT22;5755;48.116;11.608;2023-04-24T10:05:54;13.40;63.20
11399;DHT22;5755;48.116;11.608;2023-04-24T10:08:25;13.60;61.60
11399;DHT22;5755;48.116;11.608;2023-04-24T10:10:53;13.60;64.40
11399;DHT22;5755;48.116;11.608;2023-04-24T10:13:24;13.70;54.20
11399;DHT22;5755;48.116;11.608;2023-04-24T10:15:54;13.70;55.50
11399;DHT22;5755;48.116;11.608;2023-04-24T10:18:23;13.70;57.60
11399;DHT22;5755;48.116;11.608;2023-04-24T10:20:51;13.80;54.90
11399;DHT22;5755;48.116;11.608;2023-04-24T10:23:22;13.70;52.00
11399;DHT22;5755;48.116;11.608;2023-04-24T10:25:54;13.60;54.00
11399;DHT22;5755;48.116;11.608;2023-04-24T10:28:21;13.70;54.60
11399;DHT22;5755;48.116;11.608;2023-04-24T10:30:52;13.70;50.20
11399;DHT22;5755;48.116;11.608;2023-04-24T10:33:25;13.80;53.90
11399;DHT22;5755;48.116;11.608;2023-04-24T10:35:53;14.10;57.80
11399;DHT22;5755;48.116;11.608;2023-04-24T10:38:25;14.50;50.90
11399;DHT22;5755;48.116;11.608;2023-04-24T10:40:57;14.60;45.90
11399;DHT22;5755;48.116;11.608;2023-04-24T10:43:33;14.40;43.20
11399;DHT22;5755;48.116;11.608;2023-04-24T10:46:01;14.10;46.70
11399;DHT22;5755;48.116;11.608;2023-04-24T10:48:29;13.80;51.00
11399;DHT22;5755;48.116;11.608;2023-04-24T10:50:56;13.70;57.00
11399;DHT22;5755;48.116;11.608;2023-04-24T10:53:27;13.40;53.10
11399;DHT22;5755;48.116;11.608;2023-04-24T10:55:58;13.40;56.50
11399;DHT22;5755;48.116;11.608;2023-04-24T10:58:36;13.30;60.00
11399;DHT22;5755;48.116;11.608;2023-04-24T11:01:05;12.60;75.60
11399;DHT22;5755;48.116;11.608;2023-04-24T11:03:35;11.70;87.90
11399;DHT22;5755;48.116;11.608;2023-04-24T11:06:03;11.10;91.90
11399;DHT22;5755;48.116;11.608;2023-04-24T11:08:37;10.80;92.40
11399;DHT22;5755;48.116;11.608;2023-04-24T11:11:09;10.70;92.40
11399;DHT22;5755;48.116;11.608;2023-04-24T11:14:02;10.80;93.60
11399;DHT22;5755;48.116;11.608;2023-04-24T11:16:30;11.30;94.20
11399;DHT22;5755;48.116;11.608;2023-04-24T11:19:05;11.70;93.10
11399;DHT22;5755;48.116;11.608;2023-04-24T11:21:42;12.30;92.10
11399;DHT22;5755;48.116;11.608;2023-04-24T11:24:48;12.80;90.90
11399;DHT22;5755;48.116;11.608;2023-04-24T11:27:30;13.50;86.40
11399;DHT22;5755;48.116;11.608;2023-04-24T11:30:02;13.80;75.20
11399;DHT22;5755;48.116;11.608;2023-04-24T11:32:34;13.90;70.60
11399;DHT22;5755;48.116;11.608;2023-04-24T11:35:04;13.80;66.30
11399;DHT22;5755;48.116;11.608;2023-04-24T11:37:35;13.60;68.20
11399;DHT22;5755;48.116;11.608;2023-04-24T11:40:05;13.70;69.50
11399;DHT22;5755;48.116;11.608;2023-04-24T11:42:36;13.80;70.90
11399;DHT22;5755;48.116;11.608;2023-04-24T11:45:07;13.80;69.60
11399;DHT22;5755;48.116;11.608;2023-04-24T11:47:36;14.20;72.00
11399;DHT22;5755;48.116;11.608;2023-04-24T11:50:08;14.50;76.00
11399;DHT22;5755;48.116;11.608;2023-04-24T11:52:50;14.60;59.20
11399;DHT22;5755;48.116;11.608;2023-04-24T11:55:43;14.30;59.90
11399;DHT22;5755;48.116;11.608;2023-04-24T11:58:24;13.80;61.60
11399;DHT22;5755;48.116;11.608;2023-04-24T12:00:56;13.70;67.60
11399;DHT22;5755;48.116;11.608;2023-04-24T12:03:25;13.50;68.30
11399;DHT22;5755;48.116;11.608;2023-04-24T12:05:52;13.50;66.40
11399;DHT22;5755;48.116;11.608;2023-04-24T12:08:27;13.40;65.20
11399;DHT22;5755;48.116;11.608;2023-04-24T12:10:55;13.40;68.30
11399;DHT22;5755;48.116;11.608;2023-04-24T12:13:36;13.30;57.90
11399;DHT22;5755;48.116;11.608;2023-04-24T12:16:04;13.30;60.30
11399;DHT22;5755;48.116;11.608;2023-04-24T12:18:31;13.50;60.30
11399;DHT22;5755;48.116;11.608;2023-04-24T12:21:18;13.60;55.90
11399;DHT22;5755;48.116;11.608;2023-04-24T12:23:46;13.70;51.60
11399;DHT22;5755;48.116;11.608;2023-04-24T12:26:18;13.60;55.50
11399;DHT22;5755;48.116;11.608;2023-04-24T12:28:48;13.60;50.10
11399;DHT22;5755;48.116;11.608;2023-04-24T12:31:16;13.50;51.10
11399;DHT22;5755;48.116;11.608;2023-04-24T12:33:46;13.60;51.40
11399;DHT22;5755;48.116;11.608;2023-04-24T12:36:20;13.70;51.60
11399;DHT22;5755;48.116;11.608;2023-04-24T12:38:53;13.90;49.30
11399;DHT22;5755;48.116;11.608;2023-04-24T12:41:32;14.30;50.70
11399;DHT22;5755;48.116;11.608;2023-04-24T12:44:16;14.40;43.80
11399;DHT22;5755;48.116;11.608;2023-04-24T12:46:44;14.50;46.70
11399;DHT22;5755;48.116;11.608;2023-04-24T12:49:11;14.50;50.90
11399;DHT22;5755;48.116;11.608;2023-04-24T12:51:54;14.40;42.50
11399;DHT22;5755;48.116;11.608;2023-04-24T12:54:51;14.40;42.00
11399;DHT22;5755;48.116;11.608;2023-04-24T12:57:31;14.50;43.00
11399;DHT22;5755;48.116;11.608;2023-04-24T12:59:58;14.20;50.70
11399;DHT22;5755;48.116;11.608;2023-04-24T13:02:27;14.00;59.00
11399;DHT22;5755;48.116;11.608;2023-04-24T13:04:57;14.20;60.50
11399;DHT22;5755;48.116;11.608;2023-04-24T13:07:24;14.10;62.00
11399;DHT22;5755;48.116;11.608;2023-04-24T13:09:53;14.20;55.00
11399;DHT22;5755;48.116;11.608;2023-04-24T13:12:21;14.10;52.40
11399;DHT22;5755;48.116;11.608;2023-04-24T13:14:57;14.10;50.50
11399;DHT22;5755;48.116;11.608;2023-04-24T13:18:03;14.30;53.90
11399;DHT22;5755;48.116;11.608;2023-04-24T13:20:39;14.70;56.50
11399;DHT22;5755;48.116;11.608;2023-04-24T13:23:12;14.60;48.30
11399;DHT22;5755;48.116;11.608;2023-04-24T13:25:43;14.30;50.70
11399;DHT22;5755;48.116;11.608;2023-04-24T13:28:10;13.90;47.40
11399;DHT22;5755;48.116;11.608;2023-04-24T13:30:38;13.80;50.30
11399;DHT22;5755;48.116;11.608;2023-04-24T13:33:06;13.60;50.10
11399;DHT22;5755;48.116;11.608;2023-04-24T13:35:33;13.60;50.10
11399;DHT22;5755;48.116;11.608;2023-04-24T13:38:00;13.60;47.40
11399;DHT22;5755;48.116;11.608;2023-04-24T13:40:31;13.80;46.20
11399;DHT22;5755;48.116;11.608;2023-04-24T13:42:58;14.10;38.00
11399;DHT22;5755;48.116;11.608;2023-04-24T13:45:25;14.20;36.10
11399;DHT22;5755;48.116;11.608;2023-04-24T13:47:53;14.20;32.50
11399;DHT22;5755;48.116;11.608;2023-04-24T13:50:22;14.10;36.10
11399;DHT22;5755;48.116;11.608;2023-04-24T13:52:49;14.00;33.40
11399;DHT22;5755;48.116;11.608;2023-04-24T14:00:16;14.00;34.60
11399;DHT22;5755;48.116;11.608;2023-04-24T14:02:43;14.10;37.20
11399;DHT22;5755;48.116;11.608;2023-04-24T14:05:12;14.10;38.90
11399;DHT22;5755;48.116;11.608;2023-04-24T14:07:39;14.10;38.50
11399;DHT22;5755;48.116;11.608;2023-04-24T14:10:07;13.90;35.60
11399;DHT22;5755;48.116;11.608;2023-04-24T14:12:35;13.80;35.50
11399;DHT22;5755;48.116;11.608;2023-04-24T14:15:05;13.70;37.80
11399;DHT22;5755;48.116;11.608;2023-04-24T14:38:14;14.70;27.60
11399;DHT22;5755;48.116;11.608;2023-04-24T14:40:41;14.80;27.70
11399;DHT22;5755;48.116;11.608;2023-04-24T14:43:08;14.70;26.40
11399;DHT22;5755;48.116;11.608;2023-04-24T14:45:36;14.60;27.50
11399;DHT22;5755;48.116;11.608;2023-04-24T14:48:03;14.50;27.40
11399;DHT22;5755;48.116;11.608;2023-04-24T14:50:30;14.60;27.50
11399;DHT22;5755;48.116;11.608;2023-04-24T14:52:57;14.60;25.40
11399;DHT22;5755;48.116;11.608;2023-04-24T14:55:26;14.50;26.90
11399;DHT22;5755;48.116;11.608;2023-04-24T14:57:52;14.40;26.10
11399;DHT22;5755;48.116;11.608;2023-04-24T15:00:20;14.20;25.10
11399;DHT22;5755;48.116;11.608;2023-04-24T15:02:48;14.00;26.60
11399;DHT22;5755;48.116;11.608;2023-04-24T15:05:15;14.00;27.00
11399;DHT22;5755;48.116;11.608;2023-04-24T15:07:42;13.90;26.90
11399;DHT22;5755;48.116;11.608;2023-04-24T15:10:11;13.90;26.50
11399;DHT22;5755;48.116;11.608;2023-04-24T15:12:39;14.00;25.30
11399;DHT22;5755;48.116;11.608;2023-04-24T15:15:08;14.00;25.50
11399;DHT22;5755;48.116;11.608;2023-04-24T15:17:35;13.90;24.90
11399;DHT22;5755;48.116;11.608;2023-04-24T15:20:02;13.80;26.80
11399;DHT22;5755;48.116;11.608;2023-04-24T15:22:31;13.80;26.80
11399;DHT22;5755;48.116;11.608;2023-04-24T15:24:58;13.90;26.00
11399;DHT22;5755;48.116;11.608;2023-04-24T15:27:26;13.90;25.70
11399;DHT22;5755;48.116;11.608;2023-04-24T15:29:54;13.80;25.10
11399;DHT22;5755;48.116;11.608;2023-04-24T15:32:21;13.70;23.20
11399;DHT22;5755;48.116;11.608;2023-04-24T15:34:48;13.70;23.70
11399;DHT22;5755;48.116;11.608;2023-04-24T15:45:03;13.80;22.10
11399;DHT22;5755;48.116;11.608;2023-04-24T15:57:52;13.80;22.50
11399;DHT22;5755;48.116;11.608;2023-04-24T16:02:56;13.70;21.30
11399;DHT22;5755;48.116;11.608;2023-04-24T16:05:22;13.60;22.30
11399;DHT22;5755;48.116;11.608;2023-04-24T16:07:49;13.50;22.80
11399;DHT22;5755;48.116;11.608;2023-04-24T16:10:16;13.40;22.50
11399;DHT22;5755;48.116;11.608;2023-04-24T16:12:43;13.40;22.50
11399;DHT22;5755;48.116;11.608;2023-04-24T16:15:11;13.30;22.20
11399;DHT22;5755;48.116;11.608;2023-04-24T16:17:38;13.10;22.10
11399;DHT22;5755;48.116;11.608;2023-04-24T16:20:07;13.20;23.70
11399;DHT22;5755;48.116;11.608;2023-04-24T16:22:34;13.20;22.40
11399;DHT22;5755;48.116;11.608;2023-04-24T16:25:01;13.30;22.20
11399;DHT22;5755;48.116;11.608;2023-04-24T16:48:07;12.70;25.90
11399;DHT22;5755;48.116;11.608;2023-04-24T16:50:35;12.70;25.90
11399;DHT22;5755;48.116;11.608;2023-04-24T16:53:02;12.70;25.90
11399;DHT22;5755;48.116;11.608;2023-04-24T16:55:29;12.70;25.90
11399;DHT22;5755;48.116;11.608;2023-04-24T17:03:07;12.50;25.70
11399;DHT22;5755;48.116;11.608;2023-04-24T17:05:34;12.50;25.70
11399;DHT22;5755;48.116;11.608;2023-04-24T17:08:01;12.50;25.70
11399;DHT22;5755;48.116;11.608;2023-04-24T17:13:04;12.60;25.80
11399;DHT22;5755;48.116;11.608;2023-04-24T17:15:31;12.60;25.80
11399;DHT22;5755;48.116;11.608;2023-04-24T17:17:58;12.50;25.70
11399;DHT22;5755;48.116;11.608;2023-04-24T17:20:27;12.40;25.70
11399;DHT22;5755;48.116;11.608;2023-04-24T17:22:54;12.30;25.60
11399;DHT22;5755;48.116;11.608;2023-04-24T17:25:21;12.20;25.50
11399;DHT22;5755;48.116;11.608;2023-04-24T17:27:47;12.10;25.40
11399;DHT22;5755;48.116;11.608;2023-04-24T17:30:15;12.00;25.30
11399;DHT22;5755;48.116;11.608;2023-04-24T17:32:42;11.90;25.30
11399;DHT22;5755;48.116;11.608;2023-04-24T17:35:09;12.00;25.30
11399;DHT22;5755;48.116;11.608;2023-04-24T17:37:38;11.90;25.20
11399;DHT22;5755;48.116;11.608;2023-04-24T17:40:10;11.90;25.20
11399;DHT22;5755;48.116;11.608;2023-04-24T17:42:41;11.80;25.10
11399;DHT22;5755;48.116;11.608;2023-04-24T17:45:09;11.80;25.10
11399;DHT22;5755;48.116;11.608;2023-04-24T17:47:36;11.70;25.10
11399;DHT22;5755;48.116;11.608;2023-04-24T17:50:04;11.60;25.00
11399;DHT22;5755;48.116;11.608;2023-04-24T17:52:31;11.50;24.90
11399;DHT22;5755;48.116;11.608;2023-04-24T17:55:00;11.60;25.00
11399;DHT22;5755;48.116;11.608;2023-04-24T17:57:27;11.50;24.90
11399;DHT22;5755;48.116;11.608;2023-04-24T17:59:54;11.40;24.80
11399;DHT22;5755;48.116;11.608;2023-04-24T18:02:21;11.30;24.80
11399;DHT22;5755;48.116;11.608;2023-04-24T18:04:48;11.40;24.80
11399;DHT22;5755;48.116;11.608;2023-04-24T18:07:15;11.30;25.90
11399;DHT22;5755;48.116;11.608;2023-04-24T18:09:42;11.20;26.10
11399;DHT22;5755;48.116;11.608;2023-04-24T18:12:10;11.20;26.00